Time;durP1;ratioP1;P1;durP2;ratioP2;P2;SDS_P1;SDS_P2;PMS_P1;PMS_P2;Temp;Humidity;BMP_temperature;BMP_pressure;BME280_temperature;BME280_humidity;BME280_pressure;Samples;Min_cycle;Max_cycle;Signal;HPM_P1;HPM_P2
2022/11/08 00:03:23;;;;;;;9.23;1.67;;;12.70;99.90;;;;;;4230090;28;20059;-87
2022/11/08 00:14:41;;;;;;;12.13;1.92;;;12.70;99.90;;;;;;4247417;28;20074;-86
2022/11/08 00:16:42;;;;;;;9.07;2.30;;;12.70;99.90;;;;;;4247483;28;20043;-85
2022/11/08 00:18:42;;;;;;;7.32;2.20;;;12.70;99.90;;;;;;4229020;28;20043;-86
2022/11/08 00:20:43;;;;;;;8.20;1.80;;;12.70;99.90;;;;;;4247326;28;20031;-86
2022/11/08 00:22:44;;;;;;;12.55;3.30;;;12.70;99.90;;;;;;4246832;28;20155;-86
2022/11/08 00:24:45;;;;;;;8.07;1.80;;;12.70;99.90;;;;;;4247183;28;20047;-87
2022/11/08 00:26:46;;;;;;;12.95;2.50;;;12.70;99.90;;;;;;4225625;28;20088;-86
2022/11/08 00:28:48;;;;;;;8.88;2.53;;;12.70;99.90;;;;;;4230121;28;20039;-87
2022/11/08 00:30:48;;;;;;;8.55;1.95;;;12.70;99.90;;;;;;4233677;28;20135;-86
2022/11/08 00:32:49;;;;;;;10.07;2.08;;;12.70;99.90;;;;;;4228568;28;20419;-86
2022/11/08 00:34:51;;;;;;;8.52;2.05;;;12.80;99.90;;;;;;4247203;28;20147;-86
2022/11/08 00:36:52;;;;;;;6.57;1.95;;;12.70;99.90;;;;;;4247664;27;20401;-86
2022/11/08 00:38:53;;;;;;;9.23;1.63;;;12.70;99.90;;;;;;4250866;27;20039;-86
2022/11/08 00:40:53;;;;;;;7.32;2.13;;;12.70;99.90;;;;;;4231757;28;20090;-86
2022/11/08 00:42:55;;;;;;;9.05;2.33;;;12.70;99.90;;;;;;4249957;27;20491;-86
2022/11/08 00:44:56;;;;;;;9.93;1.48;;;12.70;99.90;;;;;;4231216;28;20594;-86
2022/11/08 00:46:56;;;;;;;6.40;1.58;;;12.70;99.90;;;;;;4231648;28;20056;-86
2022/11/08 00:48:57;;;;;;;9.85;2.20;;;12.70;99.90;;;;;;4229070;28;20088;-86
2022/11/08 00:51:02;;;;;;;9.20;2.10;;;12.70;99.90;;;;;;4249788;27;20049;-86
2022/11/08 00:53:03;;;;;;;9.98;1.55;;;12.70;99.90;;;;;;4231991;28;20058;-86
2022/11/08 00:55:04;;;;;;;8.40;2.10;;;12.70;99.90;;;;;;4231036;28;20077;-86
2022/11/08 00:57:05;;;;;;;14.27;2.53;;;12.70;99.90;;;;;;4249816;27;20432;-87
2022/11/08 00:59:06;;;;;;;8.43;2.35;;;12.70;99.90;;;;;;4231398;28;20054;-86
2022/11/08 01:01:16;;;;;;;10.20;1.58;;;12.70;99.90;;;;;;4244687;27;20040;-86
2022/11/08 01:03:19;;;;;;;5.50;1.40;;;12.70;99.90;;;;;;4232328;28;20050;-86
2022/11/08 01:05:20;;;;;;;8.43;2.30;;;12.80;99.90;;;;;;4229906;28;20175;-85
2022/11/08 01:07:21;;;;;;;9.63;1.52;;;12.80;99.90;;;;;;4249413;27;20503;-85
2022/11/08 01:09:21;;;;;;;12.70;2.00;;;12.80;99.90;;;;;;4250325;27;20043;-85
2022/11/08 01:11:23;;;;;;;7.90;1.73;;;12.80;99.90;;;;;;4249749;27;20054;-86
2022/11/08 01:13:24;;;;;;;7.40;1.70;;;12.80;99.90;;;;;;4231342;28;20109;-86
2022/11/08 01:15:25;;;;;;;8.32;1.83;;;12.80;99.90;;;;;;4249381;27;20043;-87
2022/11/08 01:17:26;;;;;;;11.52;2.45;;;12.80;99.90;;;;;;4231214;28;20075;-87
2022/11/08 01:19:26;;;;;;;9.95;2.53;;;12.80;99.90;;;;;;4230714;28;20131;-87
2022/11/08 01:21:27;;;;;;;6.25;2.03;;;12.80;99.90;;;;;;4231621;28;20050;-86
2022/11/08 01:23:30;;;;;;;12.50;1.98;;;12.80;99.90;;;;;;4249527;27;20049;-86
2022/11/08 01:25:34;;;;;;;9.77;2.35;;;12.80;99.90;;;;;;4231571;28;20128;-86
2022/11/08 01:27:34;;;;;;;4.10;1.52;;;12.80;99.90;;;;;;4231265;28;20126;-86
2022/11/08 01:29:36;;;;;;;12.43;2.50;;;12.80;99.90;;;;;;4231349;28;20047;-87
2022/11/08 01:31:37;;;;;;;7.88;1.20;;;12.80;99.90;;;;;;4249291;27;20050;-86
2022/11/08 01:33:38;;;;;;;7.10;1.60;;;12.80;99.90;;;;;;4231428;28;20043;-86
2022/11/08 01:35:42;;;;;;;9.55;1.45;;;12.80;99.90;;;;;;4224262;28;20051;-86
2022/11/08 01:37:42;;;;;;;15.07;2.10;;;12.80;99.90;;;;;;4223928;28;20123;-86
2022/11/08 01:39:43;;;;;;;8.15;2.42;;;12.70;99.90;;;;;;4231064;28;20044;-87
2022/11/08 01:41:44;;;;;;;10.32;1.52;;;12.70;99.90;;;;;;4231226;28;20051;-86
2022/11/08 01:43:48;;;;;;;9.10;1.55;;;12.70;99.90;;;;;;4230774;28;20048;-87
2022/11/08 01:46:25;;;;;;;9.23;1.90;;;12.60;99.90;;;;;;4214147;28;20056;-87
2022/11/08 01:48:27;;;;;;;12.43;2.45;;;12.60;99.90;;;;;;4214065;28;20056;-87
2022/11/08 01:50:28;;;;;;;8.85;1.95;;;12.60;99.90;;;;;;4248727;27;20479;-86
2022/11/08 01:52:42;;;;;;;7.20;1.73;;;12.60;99.90;;;;;;4243437;27;20165;-87
2022/11/08 01:55:18;;;;;;;12.68;1.98;;;12.60;99.90;;;;;;4212346;28;20072;-87
2022/11/08 01:57:24;;;;;;;7.50;2.15;;;12.50;99.90;;;;;;4201344;28;20506;-86
2022/11/08 01:59:25;;;;;;;8.40;1.70;;;12.50;99.90;;;;;;4247955;27;20054;-87
2022/11/08 02:01:26;;;;;;;8.70;1.38;;;12.50;99.90;;;;;;4231206;28;20047;-86
2022/11/08 02:03:29;;;;;;;8.48;1.60;;;12.50;99.90;;;;;;4214515;28;20542;-87
2022/11/08 02:05:30;;;;;;;9.98;2.10;;;12.60;99.90;;;;;;4230992;28;20514;-87
2022/11/08 02:07:33;;;;;;;8.40;1.92;;;12.50;99.90;;;;;;4231511;28;20048;-87
2022/11/08 02:09:36;;;;;;;10.27;2.05;;;12.50;99.90;;;;;;4230488;28;20458;-87
2022/11/08 02:11:40;;;;;;;11.60;1.77;;;12.50;99.90;;;;;;4233571;28;20083;-89
2022/11/08 02:13:41;;;;;;;4.38;1.38;;;12.50;99.90;;;;;;4206169;28;20048;-88
2022/11/08 02:15:42;;;;;;;8.13;1.35;;;12.50;99.90;;;;;;4248142;27;20091;-87
2022/11/08 02:17:44;;;;;;;6.93;2.22;;;12.50;99.90;;;;;;4230159;28;20118;-87
2022/11/08 02:19:48;;;;;;;8.82;1.38;;;12.50;99.90;;;;;;4230120;28;20055;-86
2022/11/08 02:21:56;;;;;;;10.75;2.17;;;12.50;99.90;;;;;;4212942;28;20514;-86
2022/11/08 02:24:05;;;;;;;9.38;1.98;;;12.40;99.90;;;;;;4229747;28;20055;-86
2022/11/08 02:26:06;;;;;;;10.90;2.00;;;12.40;99.90;;;;;;4229078;28;20051;-85
2022/11/08 02:28:07;;;;;;;9.23;1.75;;;12.40;99.90;;;;;;4247879;27;20142;-85
2022/11/08 02:30:08;;;;;;;7.13;1.50;;;12.40;99.90;;;;;;4229762;28;20069;-86
2022/11/08 02:32:11;;;;;;;7.00;1.20;;;12.30;99.90;;;;;;4248262;27;20474;-87
2022/11/08 02:34:12;;;;;;;11.20;1.63;;;12.30;99.90;;;;;;4248122;27;20072;-86
2022/11/08 02:36:23;;;;;;;7.78;2.17;;;12.30;99.90;;;;;;4230028;28;20162;-86
2022/11/08 02:38:25;;;;;;;8.23;2.58;;;12.30;99.90;;;;;;4212683;28;20095;-86
2022/11/08 02:40:25;;;;;;;8.43;1.73;;;12.20;99.90;;;;;;4229140;28;20043;-86
2022/11/08 02:42:27;;;;;;;10.85;2.45;;;12.20;99.90;;;;;;4247773;27;20491;-87
2022/11/08 02:44:28;;;;;;;9.20;1.80;;;12.20;99.90;;;;;;4231320;28;20115;-86
2022/11/08 02:46:29;;;;;;;8.68;1.55;;;12.20;99.90;;;;;;4214743;28;20051;-86
2022/11/08 02:48:31;;;;;;;10.60;2.25;;;12.10;99.90;;;;;;4249188;27;20039;-87
2022/11/08 02:50:32;;;;;;;12.25;1.40;;;12.10;99.90;;;;;;4231792;28;20436;-87
2022/11/08 02:52:33;;;;;;;6.13;1.40;;;12.10;99.90;;;;;;4214824;28;20047;-86
2022/11/08 02:54:33;;;;;;;10.80;2.08;;;12.10;99.90;;;;;;4249457;27;20092;-86
2022/11/08 02:56:34;;;;;;;9.60;1.88;;;12.10;99.90;;;;;;4214371;28;20052;-86
2022/11/08 02:58:35;;;;;;;4.55;1.40;;;12.00;99.90;;;;;;4229753;28;20136;-88
2022/11/08 03:00:36;;;;;;;4.32;1.38;;;12.00;99.90;;;;;;4247241;27;20046;-86
2022/11/08 03:02:36;;;;;;;7.90;1.35;;;12.00;99.90;;;;;;4248283;27;20407;-87
2022/11/08 03:04:37;;;;;;;6.97;1.58;;;12.00;99.90;;;;;;4230164;28;20039;-87
2022/11/08 03:06:38;;;;;;;7.63;1.42;;;12.00;99.90;;;;;;4229964;28;20112;-87
2022/11/08 03:08:38;;;;;;;7.72;1.38;;;11.90;99.90;;;;;;4248277;27;20168;-86
2022/11/08 03:10:40;;;;;;;6.93;1.40;;;11.90;99.90;;;;;;4229934;28;20047;-86
2022/11/08 03:12:41;;;;;;;10.95;1.90;;;11.90;99.90;;;;;;4228726;28;20518;-86
2022/11/08 03:14:42;;;;;;;5.95;1.42;;;11.90;99.90;;;;;;4233760;27;20071;-86
2022/11/08 03:16:43;;;;;;;7.30;1.55;;;11.90;99.90;;;;;;4240795;27;20043;-86
2022/11/08 03:18:43;;;;;;;6.55;1.50;;;11.90;99.90;;;;;;4212928;28;20056;-86
2022/11/08 03:20:45;;;;;;;2.35;1.08;;;12.00;99.90;;;;;;4229622;28;20062;-86
2022/11/08 03:22:46;;;;;;;8.85;1.58;;;11.90;99.90;;;;;;4229329;28;20519;-84
2022/11/08 03:24:47;;;;;;;6.88;1.77;;;11.80;99.90;;;;;;4229287;28;20047;-85
2022/11/08 03:26:47;;;;;;;7.03;1.52;;;11.80;99.90;;;;;;4229788;28;20086;-85
2022/11/08 03:28:48;;;;;;;6.50;1.70;;;11.80;99.90;;;;;;4229507;28;20044;-86
2022/11/08 03:30:51;;;;;;;7.80;1.35;;;11.80;99.90;;;;;;4229398;28;20514;-85
2022/11/08 03:32:51;;;;;;;5.10;1.23;;;11.80;99.90;;;;;;4212965;28;20052;-85
2022/11/08 03:34:52;;;;;;;7.00;1.85;;;11.80;99.90;;;;;;4228849;28;20043;-86
2022/11/08 03:36:53;;;;;;;7.32;2.20;;;11.80;99.90;;;;;;4239204;28;20059;-85
2022/11/08 03:38:53;;;;;;;8.10;1.48;;;11.80;99.90;;;;;;4229228;28;20047;-85
2022/11/08 03:40:54;;;;;;;10.30;1.73;;;11.70;99.90;;;;;;4230030;28;20539;-86
2022/11/08 03:42:58;;;;;;;10.68;2.58;;;11.70;99.90;;;;;;4248442;28;20047;-85
2022/11/08 03:44:59;;;;;;;4.82;1.35;;;11.70;99.90;;;;;;4214006;28;20072;-87
2022/11/08 03:46:59;;;;;;;9.27;2.15;;;11.70;99.90;;;;;;4231427;28;20055;-86
2022/11/08 03:49:00;;;;;;;5.68;1.80;;;11.70;99.90;;;;;;4230033;28;20047;-85
2022/11/08 03:51:01;;;;;;;8.65;2.70;;;11.70;99.90;;;;;;4236059;28;20058;-86
2022/11/08 03:53:02;;;;;;;5.57;1.42;;;11.70;99.90;;;;;;4236893;28;20040;-85
2022/11/08 03:55:03;;;;;;;5.10;2.28;;;11.70;99.90;;;;;;4233827;28;20504;-86
2022/11/08 03:57:03;;;;;;;9.52;1.60;;;11.70;99.90;;;;;;4250829;28;20043;-85
2022/11/08 03:59:04;;;;;;;9.13;1.90;;;11.60;99.90;;;;;;4231621;28;20211;-85
2022/11/08 04:01:06;;;;;;;7.38;1.73;;;11.60;99.90;;;;;;4247437;28;20046;-86
2022/11/08 04:03:08;;;;;;;7.88;1.70;;;11.60;99.90;;;;;;4231828;28;20129;-86
2022/11/08 04:05:10;;;;;;;7.75;1.73;;;11.60;99.90;;;;;;4230562;28;20511;-85
2022/11/08 04:07:11;;;;;;;10.25;1.92;;;11.60;99.90;;;;;;4230055;28;20135;-86
2022/11/08 04:09:12;;;;;;;9.68;1.95;;;11.60;99.90;;;;;;4212806;28;20516;-85
2022/11/08 04:15:54;;;;;;;4.82;1.20;;;11.50;99.90;;;;;;4234850;27;20047;-86
2022/11/08 04:22:34;;;;;;;7.05;2.08;;;11.50;99.90;;;;;;4250528;27;20494;-86
2022/11/08 04:24:35;;;;;;;5.68;2.05;;;11.40;99.90;;;;;;4249821;27;20050;-86
2022/11/08 04:26:35;;;;;;;10.68;1.90;;;11.40;99.90;;;;;;4232297;28;20048;-86
2022/11/08 04:28:38;;;;;;;8.45;1.88;;;11.40;99.90;;;;;;4249892;27;20054;-86
2022/11/08 04:30:38;;;;;;;8.52;1.65;;;11.40;99.90;;;;;;4232150;28;20083;-86
2022/11/08 04:32:39;;;;;;;5.13;1.52;;;11.40;99.90;;;;;;4249982;27;20031;-87
2022/11/08 04:34:40;;;;;;;8.18;1.98;;;11.40;99.90;;;;;;4249316;27;20043;-86
2022/11/08 04:36:40;;;;;;;7.15;2.17;;;11.30;99.90;;;;;;4250051;27;20479;-86
2022/11/08 04:38:41;;;;;;;4.50;1.38;;;11.30;99.90;;;;;;4214729;28;20123;-85
2022/11/08 04:40:42;;;;;;;6.05;2.20;;;11.30;99.90;;;;;;4250425;27;20502;-87
2022/11/08 04:42:43;;;;;;;6.70;1.73;;;11.30;99.90;;;;;;4232078;28;20051;-87
2022/11/08 04:44:44;;;;;;;8.60;1.75;;;11.30;99.90;;;;;;4232022;28;20080;-86
2022/11/08 04:46:45;;;;;;;8.82;1.58;;;11.30;99.90;;;;;;4250365;27;20031;-85
2022/11/08 04:48:50;;;;;;;11.13;3.45;;;11.30;99.90;;;;;;4214995;28;20047;-85
2022/11/08 04:50:51;;;;;;;11.60;2.10;;;11.30;99.90;;;;;;4214897;28;20036;-87
2022/11/08 04:52:53;;;;;;;9.60;2.08;;;11.30;99.90;;;;;;4226227;28;20073;-86
2022/11/08 04:54:55;;;;;;;10.20;1.70;;;11.30;99.90;;;;;;4231365;28;20127;-86
2022/11/08 04:56:56;;;;;;;6.25;1.30;;;11.30;99.90;;;;;;4232044;28;20047;-87
2022/11/08 04:58:58;;;;;;;8.27;1.88;;;11.30;99.90;;;;;;4231592;28;20118;-86
2022/11/08 05:01:01;;;;;;;10.63;2.17;;;11.30;99.90;;;;;;4249743;27;20058;-86
2022/11/08 05:03:02;;;;;;;11.35;2.42;;;11.30;99.90;;;;;;4232020;28;20051;-86
2022/11/08 05:05:02;;;;;;;4.82;2.08;;;11.30;99.90;;;;;;4232144;28;20085;-87
2022/11/08 05:07:05;;;;;;;10.18;1.58;;;11.30;99.90;;;;;;4231312;28;20234;-86
2022/11/08 05:09:06;;;;;;;6.38;1.80;;;11.30;99.90;;;;;;4249982;27;20097;-86
2022/11/08 05:11:15;;;;;;;4.00;1.70;;;11.30;99.90;;;;;;4221600;28;20064;-86
2022/11/08 05:13:16;;;;;;;13.18;2.70;;;11.30;99.90;;;;;;4220268;28;20043;-86
2022/11/08 05:15:17;;;;;;;8.57;1.90;;;11.30;99.90;;;;;;4231672;28;20054;-86
2022/11/08 05:17:18;;;;;;;5.50;1.67;;;11.30;99.90;;;;;;4200337;28;20048;-86
2022/11/08 05:23:22;;;;;;;8.98;1.85;;;11.20;99.90;;;;;;4239182;27;20047;-85
2022/11/08 05:24:01;;;;;;;;;;;11.20;99.90;;;;;;4231837;28;20469;-87
2022/11/08 05:26:01;;;;;;;6.07;1.92;;;11.20;99.90;;;;;;4231276;28;19953;-86
2022/11/08 05:28:02;;;;;;;4.93;2.20;;;11.20;99.90;;;;;;4237584;27;20039;-86
2022/11/08 05:30:04;;;;;;;6.90;1.60;;;11.20;99.90;;;;;;4231814;28;20039;-86
2022/11/08 05:32:06;;;;;;;6.13;1.52;;;11.20;99.90;;;;;;4249587;27;20050;-86
2022/11/08 05:34:07;;;;;;;6.28;1.30;;;11.20;99.90;;;;;;4230947;28;20051;-85
2022/11/08 05:36:10;;;;;;;6.60;1.35;;;11.20;99.90;;;;;;4227245;28;20412;-85
2022/11/08 05:38:12;;;;;;;11.52;2.28;;;11.20;99.90;;;;;;4227060;28;20044;-85
2022/11/08 05:40:13;;;;;;;7.22;1.70;;;11.10;99.90;;;;;;4227848;28;20130;-86
2022/11/08 05:42:13;;;;;;;6.47;1.52;;;11.10;99.90;;;;;;4230849;28;20055;-86
2022/11/08 05:44:14;;;;;;;4.68;1.40;;;11.10;99.90;;;;;;4230554;28;20054;-86
2022/11/08 05:46:16;;;;;;;6.35;1.60;;;11.10;99.90;;;;;;4249515;27;20068;-86
2022/11/08 05:48:18;;;;;;;4.82;1.60;;;11.10;99.90;;;;;;4249033;27;20070;-86
2022/11/08 05:50:18;;;;;;;7.38;1.80;;;11.10;99.90;;;;;;4249270;27;20039;-86
2022/11/08 05:52:19;;;;;;;5.15;1.75;;;11.10;99.90;;;;;;4230862;28;20043;-86
2022/11/08 05:54:20;;;;;;;3.60;1.50;;;11.10;99.90;;;;;;4249294;27;20050;-87
2022/11/08 05:56:21;;;;;;;8.30;1.95;;;11.10;99.90;;;;;;4213985;28;20055;-87
2022/11/08 05:58:21;;;;;;;5.93;1.77;;;11.10;99.90;;;;;;4230011;28;20404;-86
2022/11/08 06:00:22;;;;;;;6.93;1.65;;;11.10;99.90;;;;;;4247266;27;20147;-86
2022/11/08 06:02:23;;;;;;;8.68;1.17;;;11.00;99.90;;;;;;4253755;27;20043;-85
2022/11/08 06:04:23;;;;;;;5.57;1.85;;;11.00;99.90;;;;;;4249404;27;20062;-86
2022/11/08 06:06:24;;;;;;;7.35;1.50;;;11.00;99.90;;;;;;4230220;28;20055;-87
2022/11/08 06:08:25;;;;;;;6.03;1.30;;;11.00;99.90;;;;;;4214245;28;20047;-87
2022/11/08 06:10:26;;;;;;;7.70;1.05;;;11.00;99.90;;;;;;4230087;28;20525;-87
2022/11/08 06:12:27;;;;;;;5.53;1.75;;;11.00;99.90;;;;;;4247240;27;20046;-87
2022/11/08 06:14:27;;;;;;;7.05;1.75;;;11.00;99.90;;;;;;4249162;27;20035;-86
2022/11/08 06:16:28;;;;;;;4.75;1.30;;;10.90;99.90;;;;;;4250446;27;20040;-87
2022/11/08 06:18:30;;;;;;;7.00;1.60;;;10.90;99.90;;;;;;4250038;27;20050;-86
2022/11/08 06:20:31;;;;;;;5.00;1.23;;;10.90;99.90;;;;;;4253799;27;20053;-86
2022/11/08 06:22:34;;;;;;;7.55;1.75;;;10.90;99.90;;;;;;4253628;27;20075;-86
2022/11/08 06:24:35;;;;;;;9.10;1.60;;;10.90;99.90;;;;;;4240777;28;20091;-86
2022/11/08 06:26:37;;;;;;;6.68;1.73;;;10.90;99.90;;;;;;4249627;28;20062;-86
2022/11/08 06:28:37;;;;;;;7.75;1.50;;;10.80;99.90;;;;;;4249986;28;20066;-86
2022/11/08 06:30:38;;;;;;;7.13;1.50;;;10.90;99.90;;;;;;4265991;27;20064;-86
2022/11/08 06:32:39;;;;;;;5.78;1.33;;;10.90;99.90;;;;;;4266226;27;20074;-86
2022/11/08 06:34:40;;;;;;;4.90;1.48;;;10.80;99.90;;;;;;4260657;27;20035;-86
2022/11/08 06:36:42;;;;;;;6.95;1.65;;;10.80;99.90;;;;;;4248068;27;20484;-87
2022/11/08 06:38:43;;;;;;;5.43;1.40;;;10.80;99.90;;;;;;4221863;28;20048;-86
2022/11/08 06:40:44;;;;;;;2.25;1.17;;;10.80;99.90;;;;;;4241667;27;20372;-86
2022/11/08 06:42:44;;;;;;;7.10;1.90;;;10.80;99.90;;;;;;4223520;28;20162;-86
2022/11/08 06:44:45;;;;;;;4.10;1.33;;;10.80;99.90;;;;;;4249833;27;20403;-86
2022/11/08 06:46:46;;;;;;;2.85;1.25;;;10.80;99.90;;;;;;4229799;28;20048;-86
2022/11/08 06:48:46;;;;;;;4.45;1.83;;;10.80;99.90;;;;;;4229820;28;20123;-86
2022/11/08 06:50:47;;;;;;;5.40;1.35;;;10.80;99.90;;;;;;4230118;28;20051;-87
2022/11/08 06:52:58;;;;;;;7.65;1.40;;;10.70;99.90;;;;;;4229960;28;20051;-86
2022/11/08 06:54:58;;;;;;;5.07;1.52;;;10.70;99.90;;;;;;4230595;28;20104;-86
2022/11/08 06:57:01;;;;;;;2.58;1.10;;;10.70;99.90;;;;;;4248676;27;20468;-86
2022/11/08 06:59:01;;;;;;;8.57;1.20;;;10.70;99.90;;;;;;4219711;28;20055;-86
2022/11/08 07:01:04;;;;;;;3.45;1.17;;;10.80;99.90;;;;;;4235650;27;20130;-87
2022/11/08 07:03:06;;;;;;;8.60;1.55;;;10.80;99.90;;;;;;4231085;28;20500;-87
2022/11/08 07:05:07;;;;;;;5.70;1.42;;;10.80;99.90;;;;;;4230500;28;20178;-87
2022/11/08 07:07:08;;;;;;;8.57;1.70;;;10.80;99.90;;;;;;4231008;28;20047;-87
2022/11/08 07:09:10;;;;;;;5.82;1.30;;;10.80;99.90;;;;;;4236233;28;20074;-86
2022/11/08 07:11:10;;;;;;;3.33;1.40;;;10.80;99.90;;;;;;4238209;28;20584;-86
2022/11/08 07:13:12;;;;;;;8.55;2.42;;;10.80;99.90;;;;;;4236835;28;20063;-86
2022/11/08 07:15:14;;;;;;;4.57;1.33;;;10.80;99.90;;;;;;4238305;28;20096;-86
2022/11/08 07:17:15;;;;;;;8.02;1.63;;;10.80;99.90;;;;;;4251940;27;20053;-87
2022/11/08 07:19:16;;;;;;;5.18;1.45;;;10.80;99.90;;;;;;4220327;28;20522;-87
2022/11/08 07:21:18;;;;;;;7.97;1.52;;;10.80;99.90;;;;;;4255710;27;20047;-86
2022/11/08 07:23:18;;;;;;;5.20;1.40;;;10.80;99.90;;;;;;4223466;28;20048;-85
2022/11/08 07:25:20;;;;;;;5.97;1.40;;;10.80;99.90;;;;;;4245344;27;20039;-86
2022/11/08 07:27:21;;;;;;;5.75;1.75;;;10.90;99.90;;;;;;4249262;28;20200;-87
2022/11/08 07:29:23;;;;;;;10.07;1.90;;;10.80;99.90;;;;;;4248376;28;20043;-87
2022/11/08 07:31:23;;;;;;;5.05;1.50;;;10.80;99.90;;;;;;4230065;28;20527;-86
2022/11/08 07:33:24;;;;;;;3.95;1.70;;;10.90;99.90;;;;;;4214654;28;20101;-87
2022/11/08 07:35:26;;;;;;;7.72;2.03;;;10.90;99.90;;;;;;4216591;28;20059;-87
2022/11/08 07:37:27;;;;;;;7.30;2.10;;;10.90;99.90;;;;;;4230439;28;20039;-88
2022/11/08 07:39:27;;;;;;;7.72;2.00;;;10.90;99.90;;;;;;4248255;28;20054;-87
2022/11/08 07:41:28;;;;;;;7.30;1.52;;;11.00;99.90;;;;;;4212705;28;20048;-86
2022/11/08 07:43:29;;;;;;;12.80;2.75;;;11.00;99.90;;;;;;4246961;28;20100;-89
2022/11/08 07:45:30;;;;;;;7.18;1.92;;;11.00;99.90;;;;;;4226537;28;20051;-88
2022/11/08 07:47:30;;;;;;;7.47;1.58;;;11.10;99.90;;;;;;4234256;27;20047;-86
2022/11/08 07:49:34;;;;;;;6.45;1.80;;;11.10;99.90;;;;;;4224996;28;20047;-86
2022/11/08 07:51:34;;;;;;;7.15;2.03;;;11.20;99.90;;;;;;4227933;28;20155;-84
2022/11/08 07:53:35;;;;;;;5.72;1.20;;;11.20;99.90;;;;;;4232116;28;20546;-86
2022/11/08 07:55:37;;;;;;;4.00;1.60;;;11.30;99.90;;;;;;4215395;28;20186;-85
2022/11/08 07:57:38;;;;;;;6.93;1.60;;;11.40;99.90;;;;;;4249237;27;20046;-87
2022/11/08 07:59:39;;;;;;;7.63;1.35;;;11.50;99.90;;;;;;4234629;28;20475;-87
2022/11/08 08:01:39;;;;;;;4.25;1.33;;;11.60;99.90;;;;;;4234700;28;20043;-87
2022/11/08 08:03:41;;;;;;;3.85;1.50;;;11.70;99.90;;;;;;4233608;28;20491;-88
2022/11/08 08:05:44;;;;;;;3.03;1.20;;;11.70;99.90;;;;;;4259561;27;20047;-87
2022/11/08 08:07:44;;;;;;;9.27;1.33;;;11.80;99.90;;;;;;4241136;27;20102;-88
2022/11/08 08:09:46;;;;;;;3.45;1.08;;;11.80;99.90;;;;;;4225677;28;20048;-87
2022/11/08 08:11:47;;;;;;;5.35;1.38;;;11.90;99.90;;;;;;4248625;27;20039;-87
2022/11/08 08:13:48;;;;;;;2.85;1.13;;;12.00;99.90;;;;;;4214085;28;20060;-87
2022/11/08 08:15:48;;;;;;;3.90;1.20;;;12.10;99.90;;;;;;4231479;28;20062;-87
2022/11/08 08:17:49;;;;;;;6.03;1.20;;;12.20;99.90;;;;;;4253667;27;20047;-87
2022/11/08 08:19:50;;;;;;;5.90;1.10;;;12.20;99.90;;;;;;4221067;28;20048;-88
2022/11/08 08:21:51;;;;;;;7.50;1.50;;;12.30;99.90;;;;;;4220532;28;20044;-87
2022/11/08 08:23:52;;;;;;;2.15;0.88;;;12.30;99.90;;;;;;4234308;28;20442;-87
2022/11/08 08:25:55;;;;;;;5.03;1.27;;;12.30;99.90;;;;;;4252130;27;20043;-87
2022/11/08 08:27:59;;;;;;;2.45;0.85;;;12.30;99.90;;;;;;4251522;27;20039;-87
2022/11/08 08:30:01;;;;;;;2.10;1.17;;;12.20;99.90;;;;;;4233775;28;20063;-88
2022/11/08 08:32:02;;;;;;;8.02;1.70;;;12.30;99.90;;;;;;4250821;27;20075;-88
2022/11/08 08:34:03;;;;;;;3.08;1.08;;;12.40;99.90;;;;;;4207993;28;20102;-87
2022/11/08 08:36:04;;;;;;;4.90;1.17;;;12.40;99.90;;;;;;4234401;28;20042;-87
2022/11/08 08:38:06;;;;;;;7.78;1.42;;;12.40;99.90;;;;;;4248274;27;20050;-87
2022/11/08 08:40:09;;;;;;;2.65;1.00;;;12.50;99.90;;;;;;4217083;28;20062;-87
2022/11/08 08:42:10;;;;;;;5.82;1.15;;;12.60;99.90;;;;;;4216176;28;20054;-89
2022/11/08 08:44:11;;;;;;;4.43;1.42;;;12.80;99.90;;;;;;4212182;28;20067;-89
2022/11/08 08:46:13;;;;;;;3.97;1.23;;;13.10;99.90;;;;;;4216646;28;20044;-87
2022/11/08 08:48:14;;;;;;;2.90;1.30;;;13.40;99.90;;;;;;4200283;28;20056;-88
2022/11/08 08:50:15;;;;;;;2.58;1.15;;;13.70;99.90;;;;;;4206803;28;20461;-87
2022/11/08 08:52:15;;;;;;;3.28;1.02;;;13.80;99.90;;;;;;4249436;27;20054;-87
2022/11/08 08:54:16;;;;;;;3.88;1.50;;;13.90;99.90;;;;;;4251893;27;20047;-86
2022/11/08 08:56:17;;;;;;;6.47;1.30;;;13.80;99.90;;;;;;4232853;28;20522;-87
2022/11/08 08:58:18;;;;;;;6.97;1.08;;;13.70;99.90;;;;;;4215358;28;20139;-88
2022/11/08 09:00:19;;;;;;;3.38;1.10;;;13.60;99.90;;;;;;4216470;28;20055;-88
2022/11/08 09:02:20;;;;;;;4.32;1.40;;;13.40;99.90;;;;;;4252211;27;20398;-87
2022/11/08 09:04:21;;;;;;;3.75;1.00;;;13.40;99.90;;;;;;4234416;28;20058;-87
2022/11/08 09:06:21;;;;;;;2.90;0.93;;;13.50;99.90;;;;;;4233688;28;20534;-89
2022/11/08 09:08:23;;;;;;;9.02;1.10;;;13.70;99.90;;;;;;4234372;28;20043;-87
2022/11/08 09:10:24;;;;;;;8.27;1.48;;;14.00;99.90;;;;;;4244663;27;20070;-87
2022/11/08 09:12:25;;;;;;;3.22;1.23;;;14.20;99.90;;;;;;4216603;28;20044;-87
2022/11/08 09:14:27;;;;;;;3.20;1.25;;;14.50;99.90;;;;;;4232221;28;20044;-87
2022/11/08 09:16:27;;;;;;;3.80;1.23;;;14.70;99.90;;;;;;4217154;28;20496;-86
2022/11/08 09:18:30;;;;;;;6.40;1.13;;;14.90;99.90;;;;;;4234211;28;20102;-86
2022/11/08 09:20:30;;;;;;;3.05;1.10;;;14.80;99.90;;;;;;4251944;27;20057;-86
2022/11/08 09:22:32;;;;;;;2.50;1.10;;;14.70;99.90;;;;;;4233959;28;20460;-87
2022/11/08 09:24:33;;;;;;;4.15;1.25;;;14.50;99.90;;;;;;4252490;27;20117;-88
2022/11/08 09:26:34;;;;;;;6.63;1.63;;;14.20;99.90;;;;;;4235277;28;20040;-86
2022/11/08 09:28:36;;;;;;;2.15;0.95;;;14.10;99.90;;;;;;4243720;27;20080;-88
2022/11/08 09:30:36;;;;;;;4.70;0.90;;;14.00;99.90;;;;;;4232806;28;20055;-85
2022/11/08 09:32:37;;;;;;;4.40;1.30;;;14.00;99.90;;;;;;4233301;28;20405;-86
2022/11/08 09:34:38;;;;;;;2.63;1.02;;;14.00;99.90;;;;;;4216275;28;20467;-86
2022/11/08 09:36:39;;;;;;;2.35;1.10;;;14.00;99.90;;;;;;4201070;28;20496;-86
2022/11/08 09:38:40;;;;;;;3.45;1.60;;;14.00;99.90;;;;;;4235737;27;20041;-87
2022/11/08 09:41:14;;;;;;;2.97;0.80;;;14.00;99.90;;;;;;4242835;27;20047;-86
2022/11/08 09:43:28;;;;;;;4.25;0.95;;;14.00;99.90;;;;;;4251245;27;20467;-86
2022/11/08 09:45:34;;;;;;;3.25;1.30;;;14.00;99.90;;;;;;4232872;28;20063;-87
2022/11/08 09:47:38;;;;;;;3.78;1.42;;;14.10;99.90;;;;;;4215331;28;20079;-86
2022/11/08 09:50:01;;;;;;;2.38;1.10;;;14.10;99.90;;;;;;4215964;28;20080;-86
2022/11/08 09:52:03;;;;;;;4.18;1.20;;;14.20;99.90;;;;;;4219769;28;20046;-86
2022/11/08 09:54:07;;;;;;;3.30;0.95;;;14.20;99.90;;;;;;4232899;28;20048;-86
2022/11/08 09:56:33;;;;;;;2.85;1.10;;;14.20;99.90;;;;;;4215191;28;20457;-85
2022/11/08 09:58:42;;;;;;;5.07;1.33;;;14.20;99.90;;;;;;4228719;28;20048;-86
2022/11/08 10:00:44;;;;;;;4.25;0.88;;;14.20;99.90;;;;;;4243627;27;20114;-85
2022/11/08 10:02:44;;;;;;;2.30;0.98;;;14.30;99.90;;;;;;4229521;28;20523;-88
2022/11/08 10:04:52;;;;;;;2.33;0.90;;;14.40;99.90;;;;;;4224666;28;20040;-86
2022/11/08 10:07:32;;;;;;;4.18;0.98;;;14.40;99.90;;;;;;4221025;28;20043;-87
2022/11/08 10:09:52;;;;;;;5.13;1.45;;;14.40;99.90;;;;;;4219544;28;20526;-86
2022/11/08 10:12:14;;;;;;;4.85;1.10;;;14.40;99.90;;;;;;4232906;28;20044;-87
2022/11/08 10:14:35;;;;;;;2.58;0.90;;;14.40;99.90;;;;;;4241283;27;20054;-87
2022/11/08 10:16:48;;;;;;;2.88;0.90;;;14.30;99.90;;;;;;4237917;27;20431;-86
2022/11/08 10:19:17;;;;;;;4.57;1.25;;;14.30;99.90;;;;;;4238641;27;20063;-86
2022/11/08 10:21:44;;;;;;;3.22;1.35;;;14.30;99.90;;;;;;4234943;27;20039;-86
2022/11/08 10:23:54;;;;;;;3.22;1.20;;;14.20;99.90;;;;;;4241508;27;20068;-86
2022/11/08 10:25:59;;;;;;;4.07;1.10;;;14.20;99.90;;;;;;4220730;28;20052;-86
2022/11/08 10:28:02;;;;;;;5.03;1.23;;;14.20;99.90;;;;;;4225488;28;20062;-85
2022/11/08 10:30:21;;;;;;;3.20;1.13;;;14.20;99.90;;;;;;4241703;27;20101;-87
2022/11/08 10:32:22;;;;;;;4.68;1.27;;;14.10;99.90;;;;;;4243498;27;20044;-86
2022/11/08 10:34:27;;;;;;;7.65;1.10;;;14.10;99.90;;;;;;4228512;28;20074;-86
2022/11/08 10:36:40;;;;;;;3.33;1.00;;;14.10;99.90;;;;;;4232004;28;20098;-86
2022/11/08 10:38:46;;;;;;;6.45;1.30;;;14.10;99.90;;;;;;4216102;28;20094;-86
2022/11/08 10:40:56;;;;;;;3.65;1.10;;;14.20;99.90;;;;;;4225891;28;20046;-87
2022/11/08 10:43:04;;;;;;;3.15;1.15;;;14.20;99.90;;;;;;4231893;28;20058;-86
2022/11/08 10:45:06;;;;;;;5.45;1.30;;;14.20;99.90;;;;;;4232099;28;20416;-85
2022/11/08 10:47:20;;;;;;;2.20;0.80;;;14.20;99.90;;;;;;4250292;27;20056;-86
2022/11/08 10:49:31;;;;;;;3.35;1.10;;;14.10;99.90;;;;;;4250766;27;20051;-86
2022/11/08 10:51:32;;;;;;;7.15;0.93;;;14.10;99.90;;;;;;4232584;28;20047;-86
2022/11/08 10:53:33;;;;;;;6.53;1.75;;;14.10;99.90;;;;;;4234337;28;20058;-86
2022/11/08 10:55:47;;;;;;;2.10;1.33;;;14.00;99.90;;;;;;4225604;28;20082;-86
2022/11/08 10:57:48;;;;;;;3.38;1.38;;;14.00;99.90;;;;;;4216867;28;20541;-86
2022/11/08 10:59:49;;;;;;;4.82;1.15;;;14.00;99.90;;;;;;4249322;27;20078;-85
2022/11/08 11:01:50;;;;;;;2.83;1.25;;;14.00;99.90;;;;;;4249946;27;20043;-85